CheckWX is a tool to help pilots better visualize weather data.  It is not intended as a substitute for an official pre-flight weather briefing.

21:43:37 UTC

KPSF TAF
Pittsfield Municipal Airport
Pittsfield, Massachusetts, USA
KPSF 072320Z 0800/0824 17008KT P6SM BKN040 FM080100 16007KT P6SM BKN025 OVC040 FM080400 16006KT 6SM BR VCSH SCT008 OVC012 FM081500 21007KT P6SM SCT020 BKN035 FM081800 22010KT P6SM VCSH BKN040 PROB30 0818/0824 VRB15G30KT 1 1/2SM +TSRA BR BKN020 OVC040CB

Jul-8@
00:00 UTC

Jul-8 @ 00:00 UTC

Jul-8@
01:00 UTC

Jul-8 @ 01:00 UTC

TAF KPSF 072320Z 0800/0824 17008KT P6SM BKN040

Expired

Wind
  • 170° at 8 KTS
Cloud Levels
  • Broken at 4,000' AGL

Jul-8@
01:00 UTC

Jul-8 @ 01:00 UTC

Jul-8@
04:00 UTC

Jul-8 @ 04:00 UTC

FM080100 16007KT P6SM BKN025 OVC040

Expired

Wind
  • 160° at 7 KTS
Cloud Levels
  • Broken at 2,500' AGL
  • Overcast at 4,000' AGL

Jul-8@
04:00 UTC

Jul-8 @ 04:00 UTC

Jul-8@
15:00 UTC

Jul-8 @ 15:00 UTC

FM080400 16006KT 6SM BR VCSH SCT008 OVC012

Expired

Wind
  • 160° at 6 KTS
Conditions
Mist, Area Showers
Cloud Levels
  • Scattered at 800' AGL
  • Overcast at 1,200' AGL

Jul-8@
15:00 UTC

Jul-8 @ 15:00 UTC

Jul-8@
18:00 UTC

Jul-8 @ 18:00 UTC

FM081500 21007KT P6SM SCT020 BKN035

Expired

Wind
  • 210° at 7 KTS
Cloud Levels
  • Scattered at 2,000' AGL
  • Broken at 3,500' AGL

Jul-8@
18:00 UTC

Jul-8 @ 18:00 UTC

Jul-9@
00:00 UTC

Jul-9 @ 00:00 UTC

FM081800 22010KT P6SM VCSH BKN040

From

From Standard forecast or significant change

Wind
  • 220° at 10 KTS
Conditions
Area Showers
Cloud Levels
  • Broken at 4,000' AGL

Jul-8@
18:00 UTC

Jul-8 @ 18:00 UTC

Jul-9@
00:00 UTC

Jul-9 @ 00:00 UTC

PROB30 0818/0824 VRB15G30KT 1 1/2SM +TSRA BR BKN020 OVC040CB

Probable - 30% Likelihood

Probable - 30% Likelihood during this time.

Wind
  • Variable at 15 KTS
  • {Gusting to 30 KTS
Conditions
Heavy Thunderstorm, Rain, Mist
Cloud Levels
  • Broken at 2,000' AGL
  • Overcast at 4,000' AGL